Gowen, Oklahoma
Current Conditions -  °F | °C
As of 1:53 AM on Saturday 25 Oct 2014 (Local Time) from KMLC Reporting Station
Clear Clear  
Wind Chill: 65°   Ceiling: Unl
Heat Index: 65°   Visibility: 10mi
Dew Point: 59°   Wind: 3mph
Humidity: 81%   Direction: 180°S
Pressure: 30.09"   Gusts: NA
Location:  34.88°N, 95.48°W
Report Text: KMLC 250653Z AUTO 18003KT 10SM CLR 18/15 A3009 RMK AO2 SLP182 T01830150
Loading
Personal Weather Stations






























Interactive Weather Map
Tropical Storm Tracking
New forecast layout! Learn more

10-Day Weather Forecast

Advertisements
Track Severe Weather on mobile